Decoded Metar for KABR (ABERDEEN in SD, USA) (IATA:ABR) | Meteo·Mobile Aviation Weather
aviador You're here:

KABR Decoded Metar

ABERDEEN in SD, USA
Report Time2018-12-17 13:53:00
UTC Time2018-12-17 14:00:26
Flight Rules vfr VFR
Wind060° at 06 kt
W.Decomp.*RWY 35: 2.7 kt HW 5.3 kt RCW
RWY 13: 1.3 kt HW 5.8 kt LCW
W.Rank060° ranks 23
Current wind is below 060° avg. (7.7)
Visibility9999 m
Phenomena:N/A
Clouds:N/A
Expected CloudBase > 400 ft AGL from Temp-Dew spread
CeilingNone
Temp-8°C (ISA -20)
Dew Point-9°C (93% RH)
AAT-13.1°C
QNH1021 hPa
Density Alt-1,457 ft
Elevation1,302 ft
Report Wrong Elevation
Raw Report
METAR KABR 171353Z AUTO 06006KT 10SM CLR M08/M09 A3014 RMK AO2
SLP228 T10781094=

Extra information for KABR:More info

Metar Taf Metar & Taf Last 4 Metars F.Rules Stats Wind Profile Meteogram Temp Stats Airport Information Weather charts Add Link Nearby VenuesMetar ALERT Operation Metar Decoded Social comments

AIRNAV info for KABR